Time;durP1;ratioP1;P1;durP2;ratioP2;P2;SDS_P1;SDS_P2;PMS_P1;PMS_P2;Temp;Humidity;BMP_temperature;BMP_pressure;BME280_temperature;BME280_humidity;BME280_pressure;Samples;Min_cycle;Max_cycle;Signal;HPM_P1;HPM_P2
2023/06/18 00:00:08;;;;;;;43.05;32.45;;;;;;;;;;5050161;28;20128;-77
2023/06/18 00:02:35;;;;;;;44.47;31.95;;;;;;;;;;5014386;28;20044;-77
2023/06/18 00:05:01;;;;;;;41.72;30.73;;;;;;;;;;5050962;28;20044;-77
2023/06/18 00:07:27;;;;;;;44.10;31.92;;;;;;;;;;5048177;28;20629;-77
2023/06/18 00:09:53;;;;;;;46.95;32.97;;;;;;;;;;5051901;28;20063;-77
2023/06/18 00:12:19;;;;;;;45.22;32.78;;;;;;;;;;5050142;28;20093;-77
2023/06/18 00:14:45;;;;;;;46.50;32.63;;;;;;;;;;5053329;28;20044;-77
2023/06/18 00:17:11;;;;;;;42.15;30.75;;;;;;;;;;5049584;28;20052;-77
2023/06/18 00:19:37;;;;;;;44.25;31.30;;;;;;;;;;5050483;28;20563;-76
2023/06/18 00:22:05;;;;;;;43.20;30.40;;;;;;;;;;5050203;28;20059;-77
2023/06/18 00:24:31;;;;;;;40.17;29.33;;;;;;;;;;5052591;28;20400;-77
2023/06/18 00:26:57;;;;;;;47.22;30.65;;;;;;;;;;5050992;28;20136;-77
2023/06/18 00:29:23;;;;;;;41.08;28.65;;;;;;;;;;5051275;28;20051;-77
2023/06/18 00:31:50;;;;;;;44.22;28.00;;;;;;;;;;5033218;28;20033;-77
2023/06/18 00:34:17;;;;;;;49.65;28.65;;;;;;;;;;5049190;28;20159;-77
2023/06/18 00:36:43;;;;;;;39.85;28.48;;;;;;;;;;5033836;28;20040;-77
2023/06/18 00:39:09;;;;;;;43.10;29.77;;;;;;;;;;5051456;28;20088;-77
2023/06/18 00:41:36;;;;;;;44.28;31.25;;;;;;;;;;5048698;28;20102;-77
2023/06/18 00:44:02;;;;;;;46.92;30.70;;;;;;;;;;5050455;28;20067;-77
2023/06/18 00:46:30;;;;;;;43.28;29.88;;;;;;;;;;5053138;28;20503;-77
2023/06/18 00:48:57;;;;;;;44.30;30.50;;;;;;;;;;5051223;28;20051;-76
2023/06/18 00:51:28;;;;;;;49.05;30.88;;;;;;;;;;5051785;28;20044;-77
2023/06/18 00:53:56;;;;;;;56.58;31.23;;;;;;;;;;5049151;28;20036;-77
2023/06/18 00:56:25;;;;;;;47.92;29.30;;;;;;;;;;5032930;28;20067;-77
2023/06/18 00:58:51;;;;;;;37.95;27.63;;;;;;;;;;5053229;28;20041;-77
2023/06/18 01:01:19;;;;;;;50.58;30.80;;;;;;;;;;5049896;28;20044;-77
2023/06/18 01:03:47;;;;;;;51.17;31.42;;;;;;;;;;5045212;28;20403;-77
2023/06/18 01:06:17;;;;;;;40.25;29.25;;;;;;;;;;5046466;28;20599;-77
2023/06/18 01:08:48;;;;;;;46.65;32.58;;;;;;;;;;5048932;28;20357;-77
2023/06/18 01:11:18;;;;;;;50.10;33.53;;;;;;;;;;5048471;28;20495;-76
2023/06/18 01:13:44;;;;;;;50.35;34.22;;;;;;;;;;5050241;28;20045;-77
2023/06/18 01:16:11;;;;;;;51.25;34.13;;;;;;;;;;5050620;28;20040;-77
2023/06/18 01:18:39;;;;;;;53.60;34.20;;;;;;;;;;5049809;28;20048;-77
2023/06/18 01:21:19;;;;;;;50.70;33.13;;;;;;;;;;5049272;28;20487;-77
2023/06/18 01:24:04;;;;;;;42.95;31.90;;;;;;;;;;5047336;28;20106;-76
2023/06/18 01:26:31;;;;;;;55.35;31.33;;;;;;;;;;5050242;28;20037;-76
2023/06/18 01:29:00;;;;;;;53.22;32.47;;;;;;;;;;5032649;28;20457;-77
2023/06/18 01:31:27;;;;;;;42.05;30.20;;;;;;;;;;5027145;28;20041;-77
2023/06/18 01:33:53;;;;;;;39.47;29.48;;;;;;;;;;5048864;28;20041;-77
2023/06/18 01:36:34;;;;;;;42.38;30.70;;;;;;;;;;5045931;28;20041;-77
2023/06/18 01:39:08;;;;;;;43.33;30.25;;;;;;;;;;5048259;28;20137;-77
2023/06/18 01:41:36;;;;;;;42.13;30.05;;;;;;;;;;5049147;28;20040;-77
2023/06/18 01:44:06;;;;;;;42.88;29.90;;;;;;;;;;5050302;28;20098;-77
2023/06/18 01:46:33;;;;;;;42.92;30.52;;;;;;;;;;5065685;28;20412;-77
2023/06/18 01:49:02;;;;;;;42.03;29.77;;;;;;;;;;5048857;28;20511;-77
2023/06/18 01:51:30;;;;;;;40.28;29.60;;;;;;;;;;5046271;28;20040;-77
2023/06/18 01:53:57;;;;;;;35.70;27.77;;;;;;;;;;5046407;28;20079;-77
2023/06/18 01:56:23;;;;;;;38.65;29.67;;;;;;;;;;5050731;28;20044;-77
2023/06/18 01:58:50;;;;;;;40.75;29.25;;;;;;;;;;5057226;28;20043;-77
2023/06/18 02:01:16;;;;;;;51.30;32.17;;;;;;;;;;5031152;28;20439;-76
2023/06/18 02:03:43;;;;;;;42.88;30.38;;;;;;;;;;5052064;28;20040;-77
2023/06/18 02:06:09;;;;;;;42.35;30.55;;;;;;;;;;5051308;28;20487;-77
2023/06/18 02:08:35;;;;;;;40.08;30.40;;;;;;;;;;5052492;28;20056;-77
2023/06/18 02:11:01;;;;;;;41.67;31.10;;;;;;;;;;5045759;28;20063;-76
2023/06/18 02:13:27;;;;;;;43.83;30.08;;;;;;;;;;5053173;28;20079;-77
2023/06/18 02:15:53;;;;;;;42.05;31.08;;;;;;;;;;5049556;28;20044;-77
2023/06/18 02:18:20;;;;;;;38.40;29.05;;;;;;;;;;5052995;28;20058;-77
2023/06/18 02:20:46;;;;;;;40.70;29.77;;;;;;;;;;5052455;28;20055;-76
2023/06/18 02:23:13;;;;;;;39.63;29.80;;;;;;;;;;5051521;28;20053;-76
2023/06/18 02:25:39;;;;;;;41.10;29.88;;;;;;;;;;5052597;28;20171;-76
2023/06/18 02:28:09;;;;;;;40.45;28.30;;;;;;;;;;5053729;28;20048;-76
2023/06/18 02:30:35;;;;;;;33.72;26.98;;;;;;;;;;5037753;28;20142;-77
2023/06/18 02:33:02;;;;;;;33.47;26.70;;;;;;;;;;5052743;28;20047;-77
2023/06/18 02:35:29;;;;;;;40.60;26.35;;;;;;;;;;5051956;28;20126;-77
2023/06/18 02:37:55;;;;;;;31.25;25.35;;;;;;;;;;5035256;28;20048;-77
2023/06/18 02:40:22;;;;;;;33.30;24.10;;;;;;;;;;5052605;28;20048;-77
2023/06/18 02:42:48;;;;;;;81.38;25.45;;;;;;;;;;5051020;28;20037;-76
2023/06/18 02:45:16;;;;;;;55.47;25.60;;;;;;;;;;5050757;28;20052;-76
2023/06/18 02:47:42;;;;;;;129.15;26.48;;;;;;;;;;5050925;28;21055;-77
2023/06/18 02:50:08;;;;;;;77.28;27.50;;;;;;;;;;5050177;28;20036;-79
2023/06/18 02:52:34;;;;;;;64.57;26.15;;;;;;;;;;5051610;28;20052;-79
2023/06/18 02:55:00;;;;;;;58.33;27.70;;;;;;;;;;5050752;28;20044;-79
2023/06/18 02:57:27;;;;;;;37.30;27.33;;;;;;;;;;5048600;28;20514;-79
2023/06/18 02:59:53;;;;;;;85.97;28.33;;;;;;;;;;5051515;28;20048;-79
2023/06/18 03:02:19;;;;;;;63.10;29.35;;;;;;;;;;5051531;28;20055;-79
2023/06/18 03:04:45;;;;;;;110.53;30.17;;;;;;;;;;5050990;28;22053;-79
2023/06/18 03:07:11;;;;;;;79.85;29.52;;;;;;;;;;5053332;28;20044;-79
2023/06/18 03:09:37;;;;;;;54.75;29.55;;;;;;;;;;5048163;28;20164;-79
2023/06/18 03:12:03;;;;;;;72.07;30.65;;;;;;;;;;5051546;28;20036;-79
2023/06/18 03:14:30;;;;;;;56.65;30.45;;;;;;;;;;5043570;28;20048;-79
2023/06/18 03:16:57;;;;;;;51.92;30.40;;;;;;;;;;5047110;28;20051;-79
2023/06/18 03:19:23;;;;;;;49.38;30.67;;;;;;;;;;5025491;28;20170;-78
2023/06/18 03:21:50;;;;;;;71.43;31.13;;;;;;;;;;5051055;28;20040;-78
2023/06/18 03:24:17;;;;;;;56.17;30.02;;;;;;;;;;5051032;28;20036;-79
2023/06/18 03:26:45;;;;;;;78.38;30.67;;;;;;;;;;5013554;28;20120;-79
2023/06/18 03:29:11;;;;;;;81.53;32.65;;;;;;;;;;5050149;28;21951;-79
2023/06/18 03:31:39;;;;;;;379.23;38.88;;;;;;;;;;5052154;28;20052;-79
2023/06/18 03:34:07;;;;;;;166.85;34.80;;;;;;;;;;5034410;28;20134;-79
2023/06/18 03:36:39;;;;;;;59.05;31.10;;;;;;;;;;5052884;28;20045;-76
2023/06/18 03:39:09;;;;;;;77.25;32.67;;;;;;;;;;5051008;28;20072;-77
2023/06/18 03:41:36;;;;;;;159.07;35.53;;;;;;;;;;5049269;28;20047;-77
2023/06/18 03:44:05;;;;;;;48.58;31.42;;;;;;;;;;5048386;28;20041;-77
2023/06/18 03:46:32;;;;;;;76.40;32.20;;;;;;;;;;5029709;28;20072;-76
2023/06/18 03:48:59;;;;;;;48.10;32.42;;;;;;;;;;5049884;28;20048;-77
2023/06/18 03:51:26;;;;;;;47.20;31.52;;;;;;;;;;5049354;28;20082;-77
2023/06/18 03:53:52;;;;;;;55.70;30.48;;;;;;;;;;5048496;28;20496;-77
2023/06/18 03:56:19;;;;;;;68.13;29.33;;;;;;;;;;5034753;28;20044;-76
2023/06/18 03:58:46;;;;;;;47.42;28.65;;;;;;;;;;5048669;28;20044;-76
2023/06/18 04:01:12;;;;;;;45.35;30.02;;;;;;;;;;5032701;28;20051;-77
2023/06/18 04:03:39;;;;;;;102.10;33.90;;;;;;;;;;5046831;28;21020;-77
2023/06/18 04:06:05;;;;;;;49.88;32.53;;;;;;;;;;5051095;28;20045;-77
2023/06/18 04:08:31;;;;;;;56.20;33.45;;;;;;;;;;5049286;28;20045;-77
2023/06/18 04:10:58;;;;;;;66.93;34.17;;;;;;;;;;5050029;28;20052;-76
2023/06/18 04:13:24;;;;;;;219.93;38.60;;;;;;;;;;5050352;28;20090;-77
2023/06/18 04:15:50;;;;;;;71.10;35.00;;;;;;;;;;5049784;28;20128;-77
2023/06/18 04:18:16;;;;;;;235.52;38.05;;;;;;;;;;5048180;28;20809;-77
2023/06/18 04:20:43;;;;;;;54.30;34.28;;;;;;;;;;5026326;28;20036;-77
2023/06/18 04:23:09;;;;;;;59.95;34.50;;;;;;;;;;5047265;28;20115;-77
2023/06/18 04:25:35;;;;;;;52.47;34.33;;;;;;;;;;5051227;28;20509;-77
2023/06/18 04:28:01;;;;;;;45.17;32.90;;;;;;;;;;5034925;28;20384;-77
2023/06/18 04:30:27;;;;;;;43.15;33.20;;;;;;;;;;5048298;28;20036;-77
2023/06/18 04:32:53;;;;;;;54.38;33.22;;;;;;;;;;5050119;28;20044;-77
2023/06/18 04:35:19;;;;;;;48.70;33.70;;;;;;;;;;5041743;28;20044;-77
2023/06/18 04:37:45;;;;;;;45.97;34.17;;;;;;;;;;5048893;28;20108;-77
2023/06/18 04:40:12;;;;;;;78.68;36.25;;;;;;;;;;5046985;28;20051;-77
2023/06/18 04:42:38;;;;;;;46.78;34.63;;;;;;;;;;5049358;28;20085;-77
2023/06/18 04:45:05;;;;;;;40.90;32.67;;;;;;;;;;5047879;28;20097;-77
2023/06/18 04:47:32;;;;;;;41.08;32.20;;;;;;;;;;5050406;28;20761;-77
2023/06/18 04:49:58;;;;;;;43.42;31.73;;;;;;;;;;5050158;28;20048;-76
2023/06/18 04:52:24;;;;;;;37.53;30.20;;;;;;;;;;5033229;28;20040;-77
2023/06/18 04:54:52;;;;;;;36.92;29.10;;;;;;;;;;5047881;28;20056;-77
2023/06/18 04:57:19;;;;;;;35.03;29.10;;;;;;;;;;5048444;28;20040;-77
2023/06/18 04:59:46;;;;;;;33.08;28.38;;;;;;;;;;5044524;28;20482;-77
2023/06/18 05:02:12;;;;;;;34.88;28.17;;;;;;;;;;5042896;28;20131;-77
2023/06/18 05:04:39;;;;;;;37.67;27.10;;;;;;;;;;5043054;28;20132;-77
2023/06/18 05:07:05;;;;;;;32.70;27.50;;;;;;;;;;5028206;28;20888;-77
2023/06/18 05:09:31;;;;;;;36.20;28.95;;;;;;;;;;5046893;28;20056;-77
2023/06/18 05:11:57;;;;;;;35.03;27.73;;;;;;;;;;5032364;28;20041;-77
2023/06/18 05:14:23;;;;;;;34.97;28.30;;;;;;;;;;5047531;28;20059;-77
2023/06/18 05:16:49;;;;;;;31.60;27.42;;;;;;;;;;5028433;28;21703;-77
2023/06/18 05:19:15;;;;;;;30.35;27.05;;;;;;;;;;5043524;28;20097;-77
2023/06/18 05:21:41;;;;;;;40.42;29.15;;;;;;;;;;5045319;28;20048;-77
2023/06/18 05:24:07;;;;;;;31.88;26.95;;;;;;;;;;5041366;28;20041;-77
2023/06/18 05:26:34;;;;;;;32.13;26.88;;;;;;;;;;5042285;28;20403;-77
2023/06/18 05:29:01;;;;;;;35.10;27.48;;;;;;;;;;5047543;28;20589;-77
2023/06/18 05:31:30;;;;;;;33.58;27.40;;;;;;;;;;5047741;28;20146;-77
2023/06/18 05:33:56;;;;;;;34.00;27.90;;;;;;;;;;5049256;28;20044;-77
2023/06/18 05:36:22;;;;;;;35.08;29.85;;;;;;;;;;5047315;28;20060;-77
2023/06/18 05:38:50;;;;;;;29.52;26.30;;;;;;;;;;5031925;28;20094;-77
2023/06/18 05:41:16;;;;;;;31.55;27.67;;;;;;;;;;5047193;28;20044;-77
2023/06/18 05:43:42;;;;;;;32.50;27.30;;;;;;;;;;5032714;28;20048;-76
2023/06/18 05:46:08;;;;;;;34.67;28.45;;;;;;;;;;5047453;28;20113;-77
2023/06/18 05:48:35;;;;;;;30.92;26.35;;;;;;;;;;5049418;28;20122;-77
2023/06/18 05:51:01;;;;;;;29.27;25.40;;;;;;;;;;5032933;28;20673;-77
2023/06/18 05:53:27;;;;;;;30.55;24.67;;;;;;;;;;5050267;28;20037;-77
2023/06/18 05:55:53;;;;;;;38.63;23.52;;;;;;;;;;5047405;28;20055;-77
2023/06/18 05:58:19;;;;;;;26.70;21.73;;;;;;;;;;5048887;28;20131;-77
2023/06/18 06:00:45;;;;;;;23.27;20.73;;;;;;;;;;5048808;28;20110;-77
2023/06/18 06:03:11;;;;;;;23.40;20.90;;;;;;;;;;5048988;28;20181;-77
2023/06/18 06:05:37;;;;;;;24.35;21.73;;;;;;;;;;5049043;28;20040;-78
2023/06/18 06:08:06;;;;;;;29.65;22.50;;;;;;;;;;5050366;28;20028;-78
2023/06/18 06:10:32;;;;;;;38.88;22.27;;;;;;;;;;5049879;28;20473;-73
2023/06/18 06:12:58;;;;;;;28.58;22.17;;;;;;;;;;5047908;28;20384;-74
2023/06/18 06:15:24;;;;;;;26.60;22.50;;;;;;;;;;5050231;28;20071;-74
2023/06/18 06:17:50;;;;;;;26.35;22.35;;;;;;;;;;5049318;28;20745;-74
2023/06/18 06:20:17;;;;;;;26.73;21.52;;;;;;;;;;5051752;28;20111;-73
2023/06/18 06:22:43;;;;;;;27.55;24.15;;;;;;;;;;5054230;28;20072;-73
2023/06/18 06:25:09;;;;;;;44.22;26.10;;;;;;;;;;5051054;28;20040;-74
2023/06/18 06:27:35;;;;;;;31.70;26.20;;;;;;;;;;5052701;28;20488;-73
2023/06/18 06:30:01;;;;;;;32.22;25.77;;;;;;;;;;5045822;28;20044;-73
2023/06/18 06:32:28;;;;;;;31.23;25.63;;;;;;;;;;5048946;28;20040;-73
2023/06/18 06:34:54;;;;;;;33.28;25.65;;;;;;;;;;5044861;28;20048;-73
2023/06/18 06:37:20;;;;;;;33.38;27.25;;;;;;;;;;5049090;28;20063;-74
2023/06/18 06:39:48;;;;;;;34.40;28.38;;;;;;;;;;5046985;28;20066;-73
2023/06/18 06:42:14;;;;;;;37.88;30.20;;;;;;;;;;5046515;28;20049;-73
2023/06/18 06:44:40;;;;;;;38.35;30.45;;;;;;;;;;5046667;28;20052;-73
2023/06/18 06:47:06;;;;;;;43.00;32.15;;;;;;;;;;5066493;28;20492;-73
2023/06/18 06:49:32;;;;;;;37.90;30.65;;;;;;;;;;5045454;28;20041;-73
2023/06/18 06:51:58;;;;;;;36.60;29.50;;;;;;;;;;5050389;28;20075;-73
2023/06/18 06:54:24;;;;;;;35.40;27.23;;;;;;;;;;5045887;28;20416;-73
2023/06/18 06:56:51;;;;;;;26.63;23.58;;;;;;;;;;5047746;28;20054;-75
2023/06/18 06:59:17;;;;;;;25.90;23.08;;;;;;;;;;5028569;28;20134;-73
2023/06/18 07:01:43;;;;;;;29.23;23.98;;;;;;;;;;5048259;28;20090;-73
2023/06/18 07:04:10;;;;;;;28.63;24.05;;;;;;;;;;5048710;28;20058;-73
2023/06/18 07:06:40;;;;;;;29.58;24.77;;;;;;;;;;5047136;28;20044;-73
2023/06/18 07:09:06;;;;;;;26.65;23.75;;;;;;;;;;5048165;28;20155;-73
2023/06/18 07:11:33;;;;;;;25.83;22.67;;;;;;;;;;5048118;28;20397;-74
2023/06/18 07:14:00;;;;;;;28.23;22.38;;;;;;;;;;5051877;28;20042;-74
2023/06/18 07:16:26;;;;;;;29.77;24.40;;;;;;;;;;5047172;28;20114;-73
2023/06/18 07:18:52;;;;;;;25.17;21.27;;;;;;;;;;5050387;28;20033;-73
2023/06/18 07:21:18;;;;;;;24.52;20.60;;;;;;;;;;5015669;28;20045;-74
2023/06/18 07:23:44;;;;;;;24.13;21.55;;;;;;;;;;5035094;28;20115;-73
2023/06/18 07:26:11;;;;;;;24.35;21.45;;;;;;;;;;5028678;28;20060;-74
2023/06/18 07:28:37;;;;;;;23.08;20.65;;;;;;;;;;5048925;28;20528;-74
2023/06/18 07:31:03;;;;;;;22.63;19.75;;;;;;;;;;5047186;28;20044;-73
2023/06/18 07:33:29;;;;;;;22.85;20.42;;;;;;;;;;5047145;28;20032;-76
2023/06/18 07:35:55;;;;;;;23.35;19.30;;;;;;;;;;5056250;28;20040;-74
2023/06/18 07:38:22;;;;;;;19.90;17.52;;;;;;;;;;5036908;28;20496;-74
2023/06/18 07:40:48;;;;;;;20.60;18.48;;;;;;;;;;5048840;28;20508;-75
2023/06/18 07:43:15;;;;;;;24.10;19.45;;;;;;;;;;5049869;28;21971;-75
2023/06/18 07:45:41;;;;;;;22.08;19.67;;;;;;;;;;5046535;28;20088;-74
2023/06/18 07:48:10;;;;;;;21.88;19.33;;;;;;;;;;5030238;28;20771;-75
2023/06/18 07:50:36;;;;;;;23.30;20.77;;;;;;;;;;5047265;28;20052;-74
2023/06/18 07:53:03;;;;;;;23.98;20.92;;;;;;;;;;5044215;28;20032;-74
2023/06/18 07:55:29;;;;;;;23.38;19.13;;;;;;;;;;5026723;28;20048;-74
2023/06/18 07:57:55;;;;;;;21.02;18.77;;;;;;;;;;5027065;28;20058;-75
2023/06/18 08:00:21;;;;;;;21.73;19.42;;;;;;;;;;5051288;28;20071;-74
2023/06/18 08:02:48;;;;;;;26.48;19.58;;;;;;;;;;5055259;28;22113;-74
2023/06/18 08:05:14;;;;;;;20.65;18.33;;;;;;;;;;5042408;28;20052;-75
2023/06/18 08:07:40;;;;;;;19.92;17.83;;;;;;;;;;5029040;28;20105;-75
2023/06/18 08:10:07;;;;;;;19.63;17.50;;;;;;;;;;5048102;28;20047;-75
2023/06/18 08:12:33;;;;;;;24.60;20.25;;;;;;;;;;5044491;28;20044;-75
2023/06/18 08:14:59;;;;;;;22.73;19.80;;;;;;;;;;5049178;28;20408;-75
2023/06/18 08:17:25;;;;;;;22.58;19.88;;;;;;;;;;5047884;28;20492;-75
2023/06/18 08:19:51;;;;;;;23.27;20.05;;;;;;;;;;5046757;28;20080;-75
2023/06/18 08:22:18;;;;;;;24.27;20.00;;;;;;;;;;5044208;28;20051;-74
2023/06/18 08:24:44;;;;;;;25.75;20.45;;;;;;;;;;5047227;28;20048;-75
2023/06/18 08:27:12;;;;;;;23.35;20.40;;;;;;;;;;5049337;28;20051;-75
2023/06/18 08:29:38;;;;;;;25.73;20.02;;;;;;;;;;5049031;28;20048;-75
2023/06/18 08:32:04;;;;;;;22.77;19.58;;;;;;;;;;5047308;28;20102;-74
2023/06/18 08:34:34;;;;;;;21.20;17.98;;;;;;;;;;5029447;28;20134;-76
2023/06/18 08:37:00;;;;;;;23.55;20.70;;;;;;;;;;5046624;28;20040;-74
2023/06/18 08:39:27;;;;;;;22.40;18.80;;;;;;;;;;5043382;28;20196;-75
2023/06/18 08:41:54;;;;;;;21.60;19.33;;;;;;;;;;5042767;28;20125;-74
2023/06/18 08:44:23;;;;;;;23.83;19.00;;;;;;;;;;5046002;28;20139;-72
2023/06/18 08:46:50;;;;;;;21.58;18.60;;;;;;;;;;5045783;28;20048;-75
2023/06/18 08:49:18;;;;;;;22.10;18.75;;;;;;;;;;5027844;28;20037;-74
2023/06/18 08:51:45;;;;;;;20.80;18.52;;;;;;;;;;5046123;28;20172;-74
2023/06/18 08:54:17;;;;;;;20.40;17.95;;;;;;;;;;5045357;28;20064;-74
2023/06/18 08:56:45;;;;;;;19.02;16.60;;;;;;;;;;5051933;28;20070;-74
2023/06/18 08:59:15;;;;;;;18.20;16.27;;;;;;;;;;5033117;28;20089;-74
2023/06/18 09:01:42;;;;;;;20.50;16.85;;;;;;;;;;5051435;28;20052;-75
2023/06/18 09:04:09;;;;;;;18.25;16.27;;;;;;;;;;5046994;28;20075;-74
2023/06/18 09:06:36;;;;;;;18.60;16.60;;;;;;;;;;5048874;28;20848;-76
2023/06/18 09:09:04;;;;;;;19.75;16.80;;;;;;;;;;5029199;28;20043;-75
2023/06/18 09:11:31;;;;;;;22.33;16.83;;;;;;;;;;5044959;28;20055;-75
2023/06/18 09:13:57;;;;;;;20.83;16.77;;;;;;;;;;5044923;28;20740;-74
2023/06/18 09:16:23;;;;;;;18.85;16.75;;;;;;;;;;5050279;28;20544;-76
2023/06/18 09:18:50;;;;;;;19.13;16.88;;;;;;;;;;5048826;28;20044;-77
2023/06/18 09:21:38;;;;;;;21.83;17.73;;;;;;;;;;5030830;28;20111;-77
2023/06/18 09:24:07;;;;;;;21.15;17.98;;;;;;;;;;5049845;28;20442;-77
2023/06/18 09:26:34;;;;;;;24.13;21.35;;;;;;;;;;5048450;28;20139;-77
2023/06/18 09:29:07;;;;;;;22.85;19.73;;;;;;;;;;5050360;28;20127;-77
2023/06/18 09:31:35;;;;;;;24.85;18.88;;;;;;;;;;5048501;28;20089;-76
2023/06/18 09:34:13;;;;;;;21.45;18.45;;;;;;;;;;5049186;28;20052;-77
2023/06/18 09:36:41;;;;;;;23.10;17.90;;;;;;;;;;5050872;28;20449;-77
2023/06/18 09:39:17;;;;;;;21.80;18.10;;;;;;;;;;5051282;28;20167;-77
2023/06/18 09:41:44;;;;;;;18.00;16.10;;;;;;;;;;5033556;28;20056;-76
2023/06/18 09:44:13;;;;;;;22.02;16.52;;;;;;;;;;5046685;28;20061;-76
2023/06/18 09:46:42;;;;;;;18.10;16.25;;;;;;;;;;5048616;28;20109;-77
2023/06/18 09:49:08;;;;;;;16.98;15.00;;;;;;;;;;5051155;28;20395;-76
2023/06/18 09:51:38;;;;;;;18.92;15.80;;;;;;;;;;5050710;28;20045;-77
2023/06/18 09:54:05;;;;;;;17.90;15.98;;;;;;;;;;5050883;28;20043;-76
2023/06/18 09:56:31;;;;;;;18.30;15.93;;;;;;;;;;5033112;28;20106;-76
2023/06/18 09:58:57;;;;;;;18.92;16.63;;;;;;;;;;5045017;28;20775;-76
2023/06/18 10:01:27;;;;;;;18.05;16.10;;;;;;;;;;5049777;28;20041;-77
2023/06/18 10:03:53;;;;;;;19.88;15.13;;;;;;;;;;5027784;28;20040;-77
2023/06/18 10:06:20;;;;;;;15.35;12.18;;;;;;;;;;5030361;28;20037;-76
2023/06/18 10:08:47;;;;;;;15.93;13.82;;;;;;;;;;5046259;28;20500;-76
2023/06/18 10:11:15;;;;;;;15.60;11.55;;;;;;;;;;5049493;28;20044;-77
2023/06/18 10:13:46;;;;;;;17.08;13.40;;;;;;;;;;5050439;28;20511;-77
2023/06/18 10:16:16;;;;;;;14.15;12.60;;;;;;;;;;5054576;28;20630;-77
2023/06/18 10:18:56;;;;;;;14.25;12.63;;;;;;;;;;5032491;28;20059;-80
2023/06/18 10:21:28;;;;;;;17.67;11.88;;;;;;;;;;5053823;28;20686;-80
2023/06/18 10:24:08;;;;;;;13.93;11.27;;;26.10;99.90;;;;;;5053453;28;20172;-80
2023/06/18 10:26:36;;;;;;;13.82;11.05;;;;;;;;;;5054767;28;20082;-80
2023/06/18 10:29:03;;;;;;;13.63;10.30;;;;;;;;;;5052956;28;20048;-80
2023/06/18 10:31:29;;;;;;;14.10;10.18;;;;;;;;;;5052808;28;20191;-81
2023/06/18 10:33:57;;;;;;;14.75;10.40;;;;;;;;;;5052098;28;20059;-80
2023/06/18 10:36:23;;;;;;;11.63;9.40;;;;;;;;;;5051798;28;20048;-80
2023/06/18 10:38:50;;;;;;;12.65;9.02;;;;;;;;;;5037142;28;20083;-80
2023/06/18 10:41:20;;;;;;;15.60;9.90;;;;;;;;;;5051599;28;20404;-81
2023/06/18 10:43:53;;;;;;;13.73;9.02;;;;;;;;;;5050352;28;20525;-78
2023/06/18 10:46:19;;;;;;;;;;;;;;;;;;5052426;28;20052;-81
2023/06/18 10:49:05;;;;;;;13.60;8.65;;;;;;;;;;5048581;28;19924;-81
2023/06/18 10:51:32;;;;;;;13.10;9.18;;;;;;;;;;5046426;28;20047;-82
2023/06/18 10:54:38;;;;;;;10.88;8.18;;;;;;;;;;5052262;28;20543;-82
2023/06/18 10:57:04;;;;;;;17.10;9.20;;;;;;;;;;5001392;28;20505;-82
2023/06/18 10:59:41;;;;;;;15.32;9.43;;;;;;;;;;4990422;28;20041;-81
2023/06/18 11:02:07;;;;;;;16.25;8.73;;;;;;;;;;5020833;28;20609;-81
2023/06/18 11:04:34;;;;;;;15.45;9.15;;;;;;;;;;5036847;28;20568;-79
2023/06/18 11:07:31;;;;;;;10.30;8.48;;;;;;;;;;5036028;28;20044;-79
2023/06/18 11:09:58;;;;;;;12.07;8.43;;;;;;;;;;5038027;28;20047;-80
2023/06/18 11:12:25;;;;;;;11.55;8.00;;;;;;;;;;5051281;28;20082;-81
2023/06/18 11:15:07;;;;;;;11.05;7.78;;;;;;;;;;5049386;28;20053;-80
2023/06/18 11:17:34;;;;;;;11.45;8.00;;;;;;;;;;5049830;28;20131;-80
2023/06/18 11:20:01;;;;;;;11.45;7.25;;;;;;;;;;5052820;28;20044;-81
2023/06/18 11:22:31;;;;;;;9.38;7.28;;;;;;;;;;5033414;28;20190;-82
2023/06/18 11:25:00;;;;;;;13.68;7.43;;;;;;;;;;5048692;28;20048;-80
2023/06/18 11:27:27;;;;;;;9.38;6.68;;;;;;;;;;5040971;28;20090;-81
2023/06/18 11:29:57;;;;;;;10.43;7.47;;;;;;;;;;5051142;28;20134;-69
2023/06/18 11:32:23;;;;;;;11.00;6.75;;;;;;;;;;5048650;28;20036;-70
2023/06/18 11:34:53;;;;;;;7.80;6.63;;;;;;;;;;5051645;28;20484;-68
2023/06/18 11:37:19;;;;;;;8.48;7.07;;;;;;;;;;5046811;28;20045;-69
2023/06/18 11:39:45;;;;;;;8.57;7.40;;;;;;;;;;5043623;28;20048;-69
2023/06/18 11:42:21;;;;;;;9.90;6.88;;;;;;;;;;5041881;28;20086;-70
2023/06/18 11:44:51;;;;;;;9.65;7.60;;;;;;;;;;5043681;28;20060;-69
2023/06/18 11:47:18;;;;;;;12.23;6.97;;;;;;;;;;5048127;28;20072;-71
2023/06/18 11:49:44;;;;;;;10.23;6.68;;;;;;;;;;5050785;28;22078;-70
2023/06/18 11:52:15;;;;;;;10.93;6.63;;;;;;;;;;5053537;28;20040;-70
2023/06/18 11:54:41;;;;;;;8.85;7.13;;;;;;;;;;5051923;28;20172;-70
2023/06/18 11:57:10;;;;;;;7.65;6.43;;;;;;;;;;5049805;28;20045;-71
2023/06/18 11:59:36;;;;;;;7.75;6.93;;;;;;;;;;5049927;28;20055;-71
2023/06/18 12:02:12;;;;;;;11.85;7.20;;;;;;;;;;5053090;28;20040;-71
2023/06/18 12:04:38;;;;;;;7.72;6.43;;;;;;;;;;5052230;28;20075;-71
2023/06/18 12:07:05;;;;;;;8.23;6.45;;;;;;;;;;5052054;28;20041;-70
2023/06/18 12:09:35;;;;;;;7.88;6.50;;;;;;;;;;5051697;28;20134;-70
2023/06/18 12:12:01;;;;;;;9.68;6.63;;;;;;;;;;5051542;28;20734;-70
2023/06/18 12:14:46;;;;;;;9.02;6.78;;;;;;;;;;5052863;28;20048;-71
2023/06/18 12:17:15;;;;;;;9.82;6.60;;;;;;;;;;5051175;28;20044;-70
2023/06/18 12:19:50;;;;;;;10.77;6.35;;;29.70;99.90;;;;;;5050728;28;20076;-70
2023/06/18 12:22:16;;;;;;;10.90;7.85;;;;;;;;;;5040432;28;20040;-71
2023/06/18 12:24:43;;;;;;;8.95;6.75;;;;;;;;;;5042906;28;20045;-71
2023/06/18 12:27:09;;;;;;;8.32;6.45;;;;;;;;;;5043169;28;20044;-71
2023/06/18 12:29:39;;;;;;;11.10;7.70;;;;;;;;;;5043829;28;21629;-71
2023/06/18 12:32:08;;;;;;;9.40;7.55;;;;;;;;;;5041242;28;20501;-70
2023/06/18 12:34:38;;;;;;;8.52;7.60;;;;;;;;;;5041510;28;20056;-71
2023/06/18 12:37:04;;;;;;;10.07;8.20;;;;;;;;;;5041765;28;20058;-71
2023/06/18 12:39:31;;;;;;;8.75;7.78;;;;;;;;;;5042245;28;20048;-71
2023/06/18 12:41:57;;;;;;;8.65;7.38;;;;;;;;;;5044190;28;20126;-71
2023/06/18 12:44:24;;;;;;;10.60;7.57;;;;;;;;;;5048093;28;20550;-72
2023/06/18 12:46:52;;;;;;;10.20;7.93;;;;;;;;;;5048654;28;20052;-70
2023/06/18 12:49:19;;;;;;;9.07;7.00;;;;;;;;;;5042815;28;20178;-71
2023/06/18 12:51:46;;;;;;;7.90;6.75;;;;;;;;;;5040254;28;20450;-70
2023/06/18 12:54:17;;;;;;;8.10;6.32;;;;;;;;;;5042359;28;20047;-71
2023/06/18 12:56:50;;;;;;;8.07;6.90;;;;;;;;;;5041478;28;20045;-71
2023/06/18 12:59:18;;;;;;;9.75;7.35;;;;;;;;;;5042388;28;20044;-71
2023/06/18 13:01:44;;;;;;;9.18;6.45;;;;;;;;;;5044997;28;20078;-71
2023/06/18 13:04:11;;;;;;;7.35;6.57;;;;;;;;;;5050165;28;20601;-71
2023/06/18 13:06:37;;;;;;;7.35;6.15;;;;;;;;;;5045220;28;20166;-70
2023/06/18 13:09:04;;;;;;;6.65;5.97;;;;;;;;;;5047609;28;20051;-71
2023/06/18 13:11:31;;;;;;;8.82;6.90;;;;;;;;;;5049828;28;20163;-71
2023/06/18 13:13:57;;;;;;;7.45;6.10;;;;;;;;;;5052264;28;20041;-71
2023/06/18 13:16:24;;;;;;;7.35;6.22;;;;;;;;;;5050270;28;20626;-71
2023/06/18 13:18:50;;;;;;;7.32;5.80;;;;;;;;;;5050799;28;20052;-71
2023/06/18 13:21:16;;;;;;;8.15;6.43;;;;;;;;;;5051410;28;20048;-71
2023/06/18 13:23:43;;;;;;;7.97;6.50;;;;;;;;;;5050229;28;20044;-71
2023/06/18 13:26:09;;;;;;;8.15;5.97;;;;;;;;;;5050785;28;20412;-71
2023/06/18 13:28:36;;;;;;;8.15;5.90;;;;;;;;;;5027297;28;20049;-72
2023/06/18 13:31:02;;;;;;;8.25;6.65;;;;;;;;;;5047258;28;20050;-71
2023/06/18 13:33:28;;;;;;;7.82;6.85;;;;;;;;;;5047840;28;20139;-72
2023/06/18 13:35:54;;;;;;;8.10;6.15;;;;;;;;;;5046887;28;20040;-71
2023/06/18 13:38:20;;;;;;;7.25;6.05;;;;;;;;;;5046990;28;20377;-71
2023/06/18 13:40:46;;;;;;;13.07;6.47;;;;;;;;;;5047159;28;20795;-71
2023/06/18 13:43:13;;;;;;;6.63;5.97;;;;;;;;;;5044323;28;20036;-72
2023/06/18 13:45:39;;;;;;;7.00;5.90;;;;;;;;;;5046991;28;20119;-71
2023/06/18 13:48:06;;;;;;;7.93;6.53;;;;;;;;;;5046990;28;20051;-71
2023/06/18 13:50:33;;;;;;;9.23;5.40;;;;;;;;;;5051421;28;20041;-71
2023/06/18 13:52:59;;;;;;;6.53;5.85;;;;;;;;;;5050075;28;20048;-70
2023/06/18 13:55:25;;;;;;;9.70;6.03;;;;;;;;;;5049369;28;20044;-70
2023/06/18 13:57:51;;;;;;;9.35;6.30;;;;;;;;;;5048619;28;20069;-68
2023/06/18 14:00:18;;;;;;;6.53;5.90;;;;;;;;;;5048276;28;20075;-69
2023/06/18 14:02:44;;;;;;;7.53;6.07;;;;;;;;;;5048801;28;20800;-69
2023/06/18 14:05:11;;;;;;;7.40;6.55;;;;;;;;;;5048752;28;20041;-69
2023/06/18 14:07:37;;;;;;;6.40;5.85;;;;;;;;;;5050442;28;20051;-69
2023/06/18 14:10:04;;;;;;;6.75;5.82;;;;;;;;;;5047417;28;20071;-69
2023/06/18 14:12:30;;;;;;;7.88;5.78;;;;;;;;;;5049919;28;20076;-68
2023/06/18 14:14:56;;;;;;;10.65;6.13;;;;;;;;;;5048554;28;20063;-69
2023/06/18 14:17:23;;;;;;;5.90;5.30;;;;;;;;;;5047899;28;20594;-69
2023/06/18 14:19:49;;;;;;;6.50;5.70;;;;;;;;;;5048507;28;20673;-68
2023/06/18 14:22:16;;;;;;;9.77;5.40;;;;;;;;;;5048263;28;20114;-69